Time;durP1;ratioP1;P1;durP2;ratioP2;P2;SDS_P1;SDS_P2;PMS_P1;PMS_P2;Temp;Humidity;BMP_temperature;BMP_pressure;BME280_temperature;BME280_humidity;BME280_pressure;Samples;Min_cycle;Max_cycle;Signal;HPM_P1;HPM_P2
2022/03/08 00:01:35;;;;;;;12.20;5.82;;;;;;;0.81;63.60;102216.16;5048304;28;20061;-71
2022/03/08 00:04:02;;;;;;;10.32;5.18;;;;;;;0.91;63.26;102212.84;5047667;28;20067;-71
2022/03/08 00:06:28;;;;;;;12.02;5.35;;;;;;;0.93;63.18;102212.00;5037718;28;20076;-71
2022/03/08 00:08:55;;;;;;;9.73;5.00;;;;;;;0.87;63.75;102209.34;5046885;28;20073;-71
2022/03/08 00:11:21;;;;;;;11.65;5.53;;;;;;;0.76;64.02;102208.34;5046477;28;20133;-71
2022/03/08 00:13:50;;;;;;;10.55;5.47;;;;;;;0.68;64.22;102194.50;5046687;28;20119;-71
2022/03/08 00:16:18;;;;;;;11.88;5.72;;;;;;;0.75;63.73;102201.44;5049352;28;20436;-72
2022/03/08 00:18:44;;;;;;;10.95;5.43;;;;;;;0.63;64.13;102201.31;5050389;28;21391;-72
2022/03/08 00:21:11;;;;;;;10.98;5.25;;;;;;;0.27;64.91;102198.25;5050122;28;20130;-72
2022/03/08 00:23:38;;;;;;;10.70;5.53;;;;;;;0.07;66.10;102199.72;5050464;28;20072;-72
2022/03/08 00:26:04;;;;;;;12.25;4.90;;;;;;;-0.01;66.83;102197.88;5050530;28;20091;-72
2022/03/08 00:28:31;;;;;;;10.88;5.57;;;;;;;-0.43;70.28;102196.34;5049864;28;20048;-72
2022/03/08 00:30:57;;;;;;;11.65;5.78;;;;;;;-0.59;69.94;102190.06;5047719;28;20124;-72
2022/03/08 00:33:25;;;;;;;11.18;5.22;;;;;;;-0.71;71.63;102192.44;5048944;28;20146;-72
2022/03/08 00:35:52;;;;;;;11.40;5.43;;;;;;;-0.13;68.72;102184.81;5050060;28;20090;-72
2022/03/08 00:38:18;;;;;;;11.55;5.93;;;;;;;-0.51;69.39;102189.34;5050387;28;20055;-71
2022/03/08 00:40:45;;;;;;;9.68;4.90;;;;;;;-0.54;70.24;102196.16;5049604;28;20467;-71
2022/03/08 00:43:11;;;;;;;11.73;4.97;;;;;;;-0.12;68.46;102190.84;5050444;28;20053;-71
2022/03/08 00:45:39;;;;;;;13.55;5.25;;;;;;;-0.13;67.56;102184.81;5050494;28;20076;-72
2022/03/08 00:48:06;;;;;;;14.43;5.70;;;;;;;0.00;66.39;102181.53;5050195;28;20114;-72
2022/03/08 00:50:34;;;;;;;12.85;5.40;;;;;;;-0.02;66.07;102190.97;5048382;28;20069;-71
2022/03/08 00:53:00;;;;;;;15.88;5.55;;;;;;;0.09;65.85;102179.94;5050113;28;20052;-72
2022/03/08 00:55:30;;;;;;;11.02;5.03;;;;;;;0.13;65.46;102190.34;5049960;28;20567;-72
2022/03/08 00:57:59;;;;;;;11.00;5.00;;;;;;;0.08;65.18;102194.56;5049802;28;20077;-72
2022/03/08 01:00:28;;;;;;;9.93;4.70;;;;;;;0.04;65.29;102186.78;5049294;28;20072;-72
2022/03/08 01:02:55;;;;;;;10.30;5.25;;;;;;;-0.37;65.83;102184.41;5047805;28;20080;-72
2022/03/08 01:05:21;;;;;;;8.63;4.70;;;;;;;-0.65;67.40;102188.25;5047929;28;20157;-72
2022/03/08 01:07:49;;;;;;;11.73;5.40;;;;;;;-0.34;68.40;102184.47;5049741;28;20099;-72
2022/03/08 01:10:18;;;;;;;11.68;4.88;;;;;;;-0.54;68.88;102184.16;5049228;28;20102;-72
2022/03/08 01:12:45;;;;;;;12.43;5.40;;;;;;;-0.60;68.88;102196.06;5049292;28;20129;-72
2022/03/08 01:15:14;;;;;;;11.25;5.60;;;;;;;-0.94;69.46;102193.72;5049059;28;20106;-72
2022/03/08 01:17:41;;;;;;;12.45;5.35;;;;;;;-1.07;70.04;102193.50;5049589;28;20088;-72
2022/03/08 01:20:09;;;;;;;11.60;5.57;;;;;;;-0.98;70.26;102192.81;5041263;28;20133;-72
2022/03/08 01:22:35;;;;;;;12.65;5.40;;;;;;;-0.89;69.96;102182.69;5049900;28;20135;-72
2022/03/08 01:25:04;;;;;;;16.48;5.88;;;;;;;-0.62;68.05;102177.13;5047554;28;20052;-72
2022/03/08 01:27:31;;;;;;;10.32;4.93;;;;;;;-0.84;67.83;102175.91;5047950;28;20084;-73
2022/03/08 01:29:57;;;;;;;10.80;5.20;;;;;;;-0.80;67.71;102169.97;5046761;28;20458;-73
2022/03/08 01:32:24;;;;;;;9.85;5.38;;;;;;;-0.73;68.23;102169.22;5048538;28;20601;-72
2022/03/08 01:34:50;;;;;;;13.07;5.20;;;;;;;-0.50;67.23;102161.88;5049099;28;20456;-72
2022/03/08 01:37:17;;;;;;;9.60;5.30;;;;;;;-0.38;66.41;102167.25;5048829;28;20052;-72
2022/03/08 01:39:43;;;;;;;9.05;4.75;;;;;;;-0.68;66.82;102166.72;5048467;28;20524;-72
2022/03/08 01:42:13;;;;;;;11.27;5.88;;;;;;;-0.77;67.86;102166.56;5050001;28;20501;-73
2022/03/08 01:44:41;;;;;;;13.32;6.88;;;;;;;-1.25;70.28;102167.41;5039103;28;20077;-72
2022/03/08 01:47:08;;;;;;;11.95;6.20;;;;;;;-1.45;73.08;102158.47;5040242;28;20049;-72
2022/03/08 01:49:34;;;;;;;11.23;5.28;;;;;;;-1.51;72.60;102159.19;5048309;28;20459;-72
2022/03/08 01:52:01;;;;;;;10.55;5.43;;;;;;;-1.43;72.20;102150.75;5048827;28;20574;-72
2022/03/08 01:54:27;;;;;;;12.27;5.93;;;;;;;-1.35;71.07;102155.22;5048433;28;20068;-72
2022/03/08 01:56:53;;;;;;;16.33;5.90;;;;;;;-0.77;68.97;102148.53;5049112;28;20463;-72
2022/03/08 01:59:21;;;;;;;12.00;5.75;;;;;;;-0.52;67.93;102148.13;5047738;28;20129;-72
2022/03/08 02:01:48;;;;;;;12.50;5.43;;;;;;;-0.71;68.46;102152.09;5046395;28;20134;-72
2022/03/08 02:04:15;;;;;;;11.68;5.75;;;;;;;-0.85;67.91;102148.41;5048366;28;20703;-72
2022/03/08 02:06:41;;;;;;;11.30;5.47;;;;;;;-1.08;68.98;102155.75;5046758;28;20060;-72
2022/03/08 02:09:08;;;;;;;11.35;5.85;;;;;;;-0.65;68.21;102147.03;5049196;28;20076;-72
2022/03/08 02:11:34;;;;;;;12.95;5.60;;;;;;;-0.47;67.30;102151.63;5048315;28;20087;-72
2022/03/08 02:14:01;;;;;;;10.88;5.75;;;;;;;-0.31;66.09;102150.16;5045609;28;20141;-72
2022/03/08 02:16:29;;;;;;;11.05;5.40;;;;;;;-0.47;64.83;102148.16;5048557;28;20551;-72
2022/03/08 02:18:55;;;;;;;10.23;4.93;;;;;;;-0.41;65.06;102146.59;5048170;28;20052;-72
2022/03/08 02:21:23;;;;;;;13.85;5.88;;;;;;;-0.28;65.25;102142.47;5048446;28;20076;-72
2022/03/08 02:23:49;;;;;;;10.63;5.45;;;;;;;-0.15;65.07;102154.69;5048568;28;20052;-72
2022/03/08 02:26:16;;;;;;;12.05;5.38;;;;;;;-0.30;65.72;102151.91;5048631;28;20473;-72
2022/03/08 02:28:42;;;;;;;18.30;5.20;;;;;;;-0.28;64.84;102138.19;5048040;28;20080;-72
2022/03/08 02:31:09;;;;;;;14.13;5.53;;;;;;;-0.24;64.92;102136.50;5048287;28;21294;-72
2022/03/08 02:33:35;;;;;;;8.98;5.07;;;;;;;-0.08;64.84;102135.91;5048119;28;20072;-72
2022/03/08 02:36:01;;;;;;;15.80;5.78;;;;;;;-0.21;65.82;102134.84;5046433;28;20096;-71
2022/03/08 02:38:29;;;;;;;11.75;5.65;;;;;;;-0.29;66.40;102130.41;5046653;28;20154;-73
2022/03/08 02:40:55;;;;;;;12.15;5.47;;;;;;;-0.40;66.59;102135.41;5046205;28;20121;-73
2022/03/08 02:43:22;;;;;;;17.25;5.97;;;;;;;-0.33;66.67;102134.66;5047820;28;20073;-73
2022/03/08 02:45:48;;;;;;;12.48;5.95;;;;;;;-0.35;66.85;102144.09;5048264;28;20126;-73
2022/03/08 02:48:15;;;;;;;10.50;5.25;;;;;;;-0.69;67.99;102132.38;5047883;28;20068;-73
2022/03/08 02:50:41;;;;;;;13.65;6.28;;;;;;;-0.79;67.61;102134.78;5047720;28;20080;-73
2022/03/08 02:53:08;;;;;;;12.90;5.57;;;;;;;-0.77;67.37;102136.53;5039944;28;20137;-73
2022/03/08 02:55:36;;;;;;;11.88;5.82;;;;;;;-0.93;67.99;102137.13;5047618;28;20103;-73
2022/03/08 02:58:05;;;;;;;11.80;6.20;;;;;;;-0.90;68.28;102149.19;5047272;28;20063;-74
2022/03/08 03:00:32;;;;;;;12.80;6.00;;;;;;;-0.98;68.98;102147.34;5044958;28;20471;-73
2022/03/08 03:02:59;;;;;;;13.10;6.15;;;;;;;-0.87;68.38;102149.22;5045710;28;20157;-73
2022/03/08 03:05:26;;;;;;;13.80;5.90;;;;;;;-0.85;68.02;102152.72;5047568;28;20532;-73
2022/03/08 03:07:52;;;;;;;9.55;5.25;;;;;;;-0.89;67.99;102145.78;5045453;28;20056;-72
2022/03/08 03:10:21;;;;;;;11.52;5.75;;;;;;;-0.86;67.29;102143.25;5046978;28;20542;-72
2022/03/08 03:12:49;;;;;;;14.98;6.07;;;;;;;-0.94;67.25;102147.38;5047427;28;20060;-72
2022/03/08 03:15:17;;;;;;;9.68;5.50;;;;;;;-0.93;67.56;102146.56;5047753;28;20076;-72
2022/03/08 03:17:43;;;;;;;14.57;5.88;;;;;;;-0.87;67.46;102162.09;5047870;28;20072;-72
2022/03/08 03:20:11;;;;;;;14.93;5.65;;;;;;;-0.91;67.76;102163.75;5048147;28;20073;-72
2022/03/08 03:22:38;;;;;;;11.88;6.68;;;;;;;-0.85;67.57;102160.44;5048121;28;20086;-72
2022/03/08 03:25:06;;;;;;;12.50;6.13;;;;;;;-0.86;67.96;102163.84;5045514;28;20072;-72
2022/03/08 03:27:33;;;;;;;14.32;6.15;;;;;;;-0.81;66.95;102165.63;5047724;28;20393;-72
2022/03/08 03:30:01;;;;;;;11.43;5.53;;;;;;;-0.82;66.54;102163.06;5046480;28;20080;-72
2022/03/08 03:32:27;;;;;;;10.93;5.60;;;;;;;-0.80;65.34;102162.22;5045598;28;20098;-72
2022/03/08 03:34:54;;;;;;;11.02;5.65;;;;;;;-0.83;65.25;102166.47;5047360;28;20048;-72
2022/03/08 03:37:20;;;;;;;12.55;5.55;;;;;;;-0.90;65.57;102157.78;5047530;28;20130;-72
2022/03/08 03:39:47;;;;;;;14.60;5.13;;;;;;;-0.81;65.22;102162.22;5046754;28;20478;-72
2022/03/08 03:42:13;;;;;;;14.18;6.15;;;;;;;-0.93;66.21;102157.72;5047698;28;20145;-73
2022/03/08 03:44:39;;;;;;;12.43;5.45;;;;;;;-0.87;66.46;102160.41;5047847;28;20138;-72
2022/03/08 03:47:07;;;;;;;18.70;6.25;;;;;;;-0.82;65.64;102158.78;5047583;28;20106;-72
2022/03/08 03:49:34;;;;;;;11.80;5.45;;;;;;;-0.84;66.03;102154.41;5046295;28;20107;-72
2022/03/08 03:52:00;;;;;;;14.73;5.78;;;;;;;-0.81;66.37;102145.03;5051158;28;20105;-72
2022/03/08 03:54:27;;;;;;;10.60;5.55;;;;;;;-0.91;67.26;102157.75;5051189;28;20053;-72
2022/03/08 03:56:53;;;;;;;11.82;5.10;;;;;;;-1.19;67.49;102162.41;5050914;28;20076;-72
2022/03/08 03:59:20;;;;;;;9.82;5.18;;;;;;;-1.27;67.67;102170.81;5049986;28;20061;-72
2022/03/08 04:01:46;;;;;;;10.93;5.43;;;;;;;-1.40;68.35;102177.41;5050105;28;20126;-72
2022/03/08 04:04:14;;;;;;;10.18;5.05;;;;;;;-1.29;68.42;102173.34;5051255;28;20108;-72
2022/03/08 04:06:40;;;;;;;10.85;5.25;;;;;;;-1.32;68.49;102182.69;5051164;28;20069;-72
2022/03/08 04:09:07;;;;;;;9.90;4.68;;;;;;;-1.38;68.40;102170.59;5050289;28;20081;-72
2022/03/08 04:11:34;;;;;;;15.55;4.85;;;;;;;-1.39;69.08;102170.56;5050367;28;20086;-72
2022/03/08 04:14:00;;;;;;;10.55;5.47;;;;;;;-1.36;68.74;102171.47;5050512;28;20577;-72
2022/03/08 04:16:27;;;;;;;8.85;4.95;;;;;;;-1.43;68.61;102167.06;5050996;28;20069;-72
2022/03/08 04:18:53;;;;;;;10.98;4.50;;;;;;;-1.57;68.85;102173.63;5050124;28;20049;-72
2022/03/08 04:21:21;;;;;;;9.60;5.82;;;;;;;-1.78;69.99;102173.19;5051077;28;20072;-74
2022/03/08 04:23:48;;;;;;;13.60;5.25;;;;;;;-1.69;70.05;102179.38;5050524;28;21267;-73
2022/03/08 04:26:14;;;;;;;11.32;5.10;;;;;;;-1.39;68.03;102179.16;5050367;28;20487;-74
2022/03/08 04:28:40;;;;;;;13.10;4.95;;;;;;;-1.67;68.02;102179.44;5050450;28;20049;-73
2022/03/08 04:31:07;;;;;;;11.48;5.28;;;;;;;-1.98;68.05;102180.47;5050308;28;20098;-73
2022/03/08 04:33:33;;;;;;;10.10;5.15;;;;;;;-2.30;70.96;102177.16;5049731;28;20106;-74
2022/03/08 04:35:59;;;;;;;14.55;5.30;;;;;;;-2.51;73.19;102172.38;5050629;28;20118;-73
2022/03/08 04:38:27;;;;;;;10.50;5.03;;;;;;;-2.72;75.05;102186.38;5050256;28;20084;-73
2022/03/08 04:40:53;;;;;;;8.75;5.20;;;;;;;-2.69;76.17;102181.31;5049891;28;20077;-73
2022/03/08 04:43:20;;;;;;;13.98;6.15;;;;;;;-2.17;74.40;102183.44;5049824;28;20141;-73
2022/03/08 04:45:46;;;;;;;11.23;5.10;;;;;;;-1.93;71.31;102183.16;5049690;28;20052;-73
2022/03/08 04:48:12;;;;;;;7.97;4.45;;;;;;;-1.88;69.30;102181.53;5049579;28;20080;-72
2022/03/08 04:50:40;;;;;;;11.23;5.05;;;;;;;-2.00;68.46;102182.16;5049970;28;20122;-72
2022/03/08 04:53:06;;;;;;;12.15;5.50;;;;;;;-2.07;68.64;102181.13;5049729;28;20569;-72
2022/03/08 04:55:34;;;;;;;8.73;5.30;;;;;;;-1.96;68.07;102179.66;5050047;28;20076;-72
2022/03/08 04:58:00;;;;;;;11.38;4.97;;;;;;;-1.88;67.97;102182.41;5049861;28;20069;-72
2022/03/08 05:00:26;;;;;;;9.75;4.97;;;;;;;-1.81;67.77;102168.00;5046588;28;20789;-72
2022/03/08 05:02:53;;;;;;;12.13;5.30;;;;;;;-2.20;68.10;102176.53;5049517;28;20162;-72
2022/03/08 05:05:19;;;;;;;10.32;5.53;;;;;;;-2.23;68.77;102188.44;5050312;28;20072;-72
2022/03/08 05:07:45;;;;;;;9.35;5.47;;;;;;;-2.35;70.53;102188.16;5049647;28;20125;-72
2022/03/08 05:10:13;;;;;;;9.15;4.90;;;;;;;-2.46;71.62;102180.19;5049213;28;20130;-72
2022/03/08 05:12:42;;;;;;;14.23;5.57;;;;;;;-2.26;71.60;102188.38;5041421;28;20056;-72
2022/03/08 05:15:10;;;;;;;8.60;4.53;;;;;;;-1.91;69.68;102182.34;5041340;28;20106;-72
2022/03/08 05:17:36;;;;;;;10.95;5.25;;;;;;;-1.88;68.30;102186.66;5039434;28;20052;-72
2022/03/08 05:20:04;;;;;;;15.18;5.22;;;;;;;-1.77;67.08;102185.19;5048965;28;20542;-72
2022/03/08 05:22:30;;;;;;;10.10;5.07;;;;;;;-1.74;66.45;102180.16;5049326;28;20084;-72
2022/03/08 05:24:56;;;;;;;9.48;5.50;;;;;;;-1.81;66.11;102181.69;5049338;28;20056;-72
2022/03/08 05:27:23;;;;;;;13.00;5.85;;;;;;;-1.89;66.14;102182.38;5049723;28;20110;-72
2022/03/08 05:29:51;;;;;;;11.40;5.60;;;;;;;-2.08;66.45;102184.53;5048165;28;20516;-72
2022/03/08 05:32:17;;;;;;;10.25;4.90;;;;;;;-2.27;68.11;102178.94;5046971;28;20049;-72
2022/03/08 05:34:44;;;;;;;11.50;5.00;;;;;;;-2.38;69.27;102186.38;5049432;28;20076;-72
2022/03/08 05:37:10;;;;;;;11.45;5.05;;;;;;;-2.07;68.79;102177.69;5049496;28;20076;-72
2022/03/08 05:39:37;;;;;;;10.40;5.68;;;;;;;-2.26;69.53;102188.38;5048623;28;20072;-72
2022/03/08 05:42:04;;;;;;;12.50;5.60;;;;;;;-2.43;68.92;102185.41;5048672;28;22819;-72
2022/03/08 05:44:30;;;;;;;11.90;5.68;;;;;;;-2.10;67.78;102185.31;5048321;28;21092;-72
2022/03/08 05:46:58;;;;;;;10.73;5.75;;;;;;;-2.04;67.79;102191.50;5048772;28;20151;-72
2022/03/08 05:49:24;;;;;;;9.90;5.20;;;;;;;-2.24;68.59;102191.84;5048511;28;20083;-72
2022/03/08 05:51:50;;;;;;;13.55;5.63;;;;;;;-1.98;67.63;102191.63;5047874;28;20484;-72
2022/03/08 05:54:17;;;;;;;10.70;5.13;;;;;;;-2.26;68.41;102194.41;5048074;28;20060;-72
2022/03/08 05:56:44;;;;;;;13.25;5.35;;;;;;;-2.07;67.48;102190.56;5048908;28;20088;-73
2022/03/08 05:59:10;;;;;;;11.63;4.65;;;;;;;-1.96;66.85;102189.94;5047540;28;20053;-72
2022/03/08 06:01:37;;;;;;;8.70;4.53;;;;;;;-1.95;66.46;102185.66;5048574;28;20073;-72
2022/03/08 06:04:04;;;;;;;12.65;5.93;;;;;;;-1.77;65.90;102191.22;5049254;28;20133;-73
2022/03/08 06:06:31;;;;;;;12.65;5.65;;;;;;;-1.77;65.90;102196.34;5046309;28;20077;-73
2022/03/08 06:08:57;;;;;;;11.73;5.38;;;;;;;-1.60;65.92;102200.16;5048025;28;20080;-74
2022/03/08 06:11:24;;;;;;;11.38;5.75;;;;;;;-1.69;67.35;102199.09;5047737;28;20127;-74
2022/03/08 06:13:50;;;;;;;12.82;6.50;;;;;;;-1.38;66.67;102200.59;5047186;28;20146;-74
2022/03/08 06:16:16;;;;;;;9.63;5.35;;;;;;;-1.35;66.22;102205.81;5046208;28;20474;-74
2022/03/08 06:18:42;;;;;;;10.18;5.68;;;;;;;-1.25;67.03;102208.59;5048474;28;20493;-74
2022/03/08 06:21:10;;;;;;;16.70;7.55;;;;;;;-0.96;66.96;102213.44;5045358;28;20095;-74
2022/03/08 06:23:37;;;;;;;12.40;6.30;;;;;;;-0.60;66.57;102201.22;5048488;28;20128;-75
2022/03/08 06:26:03;;;;;;;13.57;6.18;;;;;;;0.10;64.92;102204.91;5047785;28;20619;-73
2022/03/08 06:28:29;;;;;;;13.13;5.57;;;;;;;0.67;63.18;102195.34;5048522;28;20509;-73
2022/03/08 06:30:56;;;;;;;13.45;6.20;;;;;;;0.60;62.47;102209.00;5045400;28;20691;-73
2022/03/08 06:33:22;;;;;;;15.15;8.10;;;;;;;0.72;62.85;102201.44;5048407;28;20107;-73
2022/03/08 06:35:48;;;;;;;13.00;7.43;;;;;;;0.91;62.33;102200.78;5048133;28;20468;-73
2022/03/08 06:38:16;;;;;;;15.70;7.93;;;;;;;0.72;63.38;102211.75;5047658;28;20076;-73
2022/03/08 06:40:43;;;;;;;13.80;6.43;;;;;;;0.68;63.67;102209.97;5048097;28;20072;-73
2022/03/08 06:43:09;;;;;;;12.43;6.45;;;;;;;1.13;62.40;102208.75;5047725;28;20072;-73
2022/03/08 06:45:35;;;;;;;11.65;6.70;;;;;;;1.20;62.87;102211.41;5046977;28;20133;-72
2022/03/08 06:48:02;;;;;;;15.23;6.75;;;;;;;1.61;61.75;102216.97;5047902;28;20140;-73
2022/03/08 06:50:28;;;;;;;10.73;6.32;;;;;;;2.14;60.70;102217.38;5047567;28;20048;-73
2022/03/08 06:52:55;;;;;;;16.13;7.05;;;;;;;2.73;59.22;102211.63;5047798;28;20630;-73
2022/03/08 06:55:22;;;;;;;10.70;6.45;;;;;;;2.75;58.69;102218.53;5048136;28;20099;-73
2022/03/08 06:57:49;;;;;;;11.98;6.80;;;;;;;3.04;59.27;102222.94;5047521;28;20068;-73
2022/03/08 07:00:16;;;;;;;15.38;7.22;;;;;;;3.03;60.93;102221.22;5047381;28;20068;-73
2022/03/08 07:02:43;;;;;;;12.00;7.25;;;;;;;3.77;59.08;102224.75;5048564;28;20941;-72
2022/03/08 07:05:10;;;;;;;14.38;6.50;;;;;;;4.34;58.05;102217.78;5037906;28;20076;-72
2022/03/08 07:07:37;;;;;;;11.65;6.97;;;;;;;4.34;57.62;102212.59;5047795;28;20475;-74
2022/03/08 07:10:05;;;;;;;12.50;6.32;;;;;;;4.40;58.09;102215.16;5046814;28;20628;-73
2022/03/08 07:12:32;;;;;;;11.52;7.10;;;;;;;4.24;58.89;102208.28;5033836;28;20081;-74
2022/03/08 07:14:59;;;;;;;15.77;6.80;;;;;;;4.67;57.94;102212.47;5045153;28;20060;-73
2022/03/08 07:17:25;;;;;;;10.63;6.85;;;;;;;5.50;56.89;102208.53;5048309;28;20129;-73
2022/03/08 07:19:51;;;;;;;12.85;6.60;;;;;;;6.08;54.20;102218.47;5046234;28;20126;-73
2022/03/08 07:22:18;;;;;;;15.63;7.28;;;;;;;6.22;55.85;102209.63;5046869;28;21198;-73
2022/03/08 07:24:44;;;;;;;12.38;7.40;;;;;;;6.89;52.61;102213.19;5047251;28;20216;-73
2022/03/08 07:27:11;;;;;;;11.00;6.65;;;;;;;7.18;52.02;102201.47;5051944;28;20056;-73
2022/03/08 07:29:38;;;;;;;17.88;7.50;;;;;;;7.77;50.04;102204.88;5050844;28;20052;-74
2022/03/08 07:32:06;;;;;;;14.00;7.45;;;;;;;6.92;53.59;102207.94;5050698;28;20080;-73
2022/03/08 07:34:32;;;;;;;14.30;7.60;;;;;;;6.97;51.39;102201.78;5050588;28;20097;-74
2022/03/08 07:36:58;;;;;;;17.40;7.32;;;;;;;7.21;50.90;102203.16;5050681;28;20057;-74
2022/03/08 07:39:25;;;;;;;12.60;6.70;;;;;;;7.38;51.95;102197.72;5048852;28;20566;-74
2022/03/08 07:41:51;;;;;;;15.60;7.25;;;;;;;8.79;48.27;102202.06;5051819;28;20098;-73
2022/03/08 07:44:17;;;;;;;9.68;6.30;;;;;;;9.02;45.85;102198.09;5050963;28;20099;-74
2022/03/08 07:46:45;;;;;;;9.15;5.75;;;;;;;8.58;46.49;102192.06;5050459;28;20080;-74
2022/03/08 07:49:11;;;;;;;12.13;5.95;;;;;;;9.11;47.19;102195.31;5037877;28;20073;-73
2022/03/08 07:51:38;;;;;;;13.35;5.80;;;;;;;9.49;45.41;102197.03;5056500;28;20405;-72
2022/03/08 07:54:04;;;;;;;11.02;6.57;;;;;;;10.32;43.59;102186.16;5065003;28;20106;-73
2022/03/08 07:56:30;;;;;;;9.60;5.47;;;;;;;11.13;41.76;102178.47;5066595;28;20084;-73
2022/03/08 07:58:57;;;;;;;15.20;5.88;;;;;;;10.67;42.92;102191.28;5039590;28;20049;-73
2022/03/08 08:01:23;;;;;;;10.02;5.60;;;;;;;11.38;40.87;102186.44;5053104;28;20118;-73
2022/03/08 08:03:51;;;;;;;8.32;5.07;;;;;;;11.08;41.79;102176.91;5062155;28;20067;-73
2022/03/08 08:06:17;;;;;;;7.55;5.00;;;;;;;10.44;41.57;102189.31;5052887;28;20095;-73
2022/03/08 08:08:43;;;;;;;7.50;4.40;;;;;;;10.68;42.68;102191.22;5056087;28;20177;-73
2022/03/08 08:11:10;;;;;;;8.45;4.68;;;;;;;11.20;41.92;102192.28;5067560;28;20491;-73
2022/03/08 08:13:36;;;;;;;7.07;4.60;;;;;;;11.02;41.33;102187.59;5048404;28;20485;-73
2022/03/08 08:16:03;;;;;;;8.25;4.38;;;;;;;10.51;41.93;102193.47;5070183;28;20109;-73
2022/03/08 08:18:29;;;;;;;11.07;6.03;;;;;;;9.88;45.36;102190.78;5047963;28;20099;-73
2022/03/08 08:20:57;;;;;;;10.65;5.05;;;;;;;8.89;45.96;102194.06;5035846;28;20741;-73
2022/03/08 08:23:23;;;;;;;13.35;5.57;;;;;;;9.13;45.03;102198.72;5048855;28;20049;-74
2022/03/08 08:25:49;;;;;;;7.22;4.97;;;;;;;9.59;45.20;102194.16;5048926;28;20124;-74
2022/03/08 08:28:16;;;;;;;8.93;5.22;;;;;;;11.30;40.94;102190.22;5050029;28;20508;-74
2022/03/08 08:30:42;;;;;;;8.85;4.80;;;;;;;10.59;43.60;102204.63;5049420;28;20056;-73
2022/03/08 08:33:08;;;;;;;9.82;4.72;;;;;;;10.43;43.27;102200.69;5049632;28;20072;-74
2022/03/08 08:35:35;;;;;;;8.43;5.15;;;;;;;11.58;41.48;102186.66;5049442;28;20145;-73
2022/03/08 08:38:03;;;;;;;9.38;4.70;;;;;;;10.13;43.77;102189.25;5047450;28;21029;-73
2022/03/08 08:40:29;;;;;;;11.30;5.05;;;;;;;10.51;42.40;102190.84;5049045;28;20048;-74
2022/03/08 08:42:56;;;;;;;7.60;4.68;;;;;;;11.03;42.13;102191.94;5050436;28;20053;-73
2022/03/08 08:45:22;;;;;;;9.93;5.13;;;;;;;10.24;44.33;102189.84;5049107;28;20398;-73
2022/03/08 08:47:48;;;;;;;9.20;4.97;;;;;;;9.12;45.51;102202.25;5049929;28;20615;-73
2022/03/08 08:50:15;;;;;;;9.38;4.82;;;;;;;8.82;48.24;102201.19;5049338;28;20708;-72
2022/03/08 08:52:41;;;;;;;12.10;5.18;;;;;;;10.46;47.58;102192.72;5037688;28;20069;-73
2022/03/08 08:55:09;;;;;;;8.13;4.85;;;;;;;11.02;43.43;102184.97;5049603;28;20161;-73
2022/03/08 08:57:36;;;;;;;8.23;4.20;;;;;;;12.35;40.01;102182.28;5041855;28;20467;-73
2022/03/08 09:00:03;;;;;;;7.60;4.07;;;;;;;12.71;38.84;102183.56;5048341;28;20072;-73
2022/03/08 09:02:29;;;;;;;8.15;4.90;;;;;;;11.11;43.72;102189.94;5047995;28;20186;-73
2022/03/08 09:04:56;;;;;;;11.27;4.88;;;;;;;11.62;42.72;102177.78;5049154;28;20084;-73
2022/03/08 09:07:22;;;;;;;8.70;4.88;;;;;;;12.42;40.76;102178.50;5047433;28;20110;-73
2022/03/08 09:09:49;;;;;;;10.15;4.80;;;;;;;13.25;40.27;102177.97;5045632;28;20546;-73
2022/03/08 09:12:16;;;;;;;8.82;4.78;;;;;;;12.50;39.10;102174.69;5049362;28;20500;-73
2022/03/08 09:14:43;;;;;;;9.30;5.35;;;;;;;10.46;44.82;102184.88;5039558;28;20076;-73
2022/03/08 09:17:10;;;;;;;7.28;4.85;;;;;;;10.93;43.17;102186.13;5048952;28;20065;-73
2022/03/08 09:19:36;;;;;;;7.40;4.53;;;;;;;12.97;39.93;102175.50;5048284;28;20079;-73
2022/03/08 09:22:03;;;;;;;8.57;4.80;;;;;;;13.80;39.12;102176.53;5049034;28;20069;-73
2022/03/08 09:24:29;;;;;;;8.77;4.68;;;;;;;12.19;40.58;102181.97;5048373;28;20053;-73
2022/03/08 09:26:55;;;;;;;7.97;4.65;;;;;;;10.47;44.09;102191.84;5048421;28;20052;-73
2022/03/08 09:29:23;;;;;;;8.55;4.38;;;;;;;11.36;44.41;102180.38;5048178;28;20531;-73
2022/03/08 09:31:52;;;;;;;7.18;4.38;;;;;;;12.17;41.27;102174.13;5048935;28;20163;-73
2022/03/08 09:34:18;;;;;;;9.43;4.15;;;;;;;13.19;41.57;102170.31;5061490;28;20132;-73
2022/03/08 09:36:45;;;;;;;6.95;4.20;;;;;;;13.95;40.37;102175.03;5051922;28;20486;-74
2022/03/08 09:39:12;;;;;;;7.88;4.40;;;;;;;14.53;38.89;102171.56;5047482;28;20532;-73
2022/03/08 09:41:38;;;;;;;9.90;4.47;;;;;;;14.52;38.76;102167.22;5057725;28;20534;-73
2022/03/08 09:44:06;;;;;;;6.68;4.53;;;;;;;15.13;38.12;102156.44;5044164;28;20139;-73
2022/03/08 09:46:34;;;;;;;8.48;4.88;;;;;;;14.71;36.39;102156.66;5046991;28;20390;-73
2022/03/08 09:49:01;;;;;;;7.63;4.22;;;;;;;13.11;40.59;102156.59;5066824;28;20145;-73
2022/03/08 09:51:28;;;;;;;7.40;4.50;;;;;;;13.87;38.05;102162.19;5057135;28;20053;-73
2022/03/08 09:53:54;;;;;;;8.77;4.60;;;;;;;14.23;36.47;102162.34;5048911;28;20463;-73
2022/03/08 09:56:21;;;;;;;7.53;4.40;;;;;;;14.39;35.30;102162.56;5044707;28;20140;-75
2022/03/08 09:58:48;;;;;;;8.38;4.53;;;;;;;14.57;36.29;102169.66;5053383;28;20056;-73
2022/03/08 10:01:15;;;;;;;6.43;3.70;;;;;;;14.46;35.34;102169.28;5045759;28;20075;-72
2022/03/08 10:03:46;;;;;;;7.22;4.60;;;;;;;12.28;39.20;102178.16;5062946;28;20067;-72
2022/03/08 10:06:13;;;;;;;9.30;4.63;;;;;;;12.86;39.21;102185.59;5050557;28;20064;-72
2022/03/08 10:08:39;;;;;;;8.48;4.32;;;;;;;13.06;38.18;102169.91;5068362;28;20071;-72
2022/03/08 10:11:09;;;;;;;9.40;4.70;;;;;;;12.76;38.26;102175.47;5045941;28;20397;-72
2022/03/08 10:13:42;;;;;;;6.47;4.15;;;;;;;13.06;38.24;102169.03;5062532;28;20072;-72
2022/03/08 10:16:11;;;;;;;7.93;4.03;;;;;;;13.70;36.68;102174.38;5061458;28;20055;-72
2022/03/08 10:18:41;;;;;;;7.10;3.90;;;;;;;14.16;35.40;102160.91;5054839;28;20044;-72
2022/03/08 10:21:40;;;;;;;5.85;3.45;;;;;;;13.83;40.33;102159.72;5043930;28;20060;-72
2022/03/08 10:24:14;;;;;;;8.57;4.18;;;;;;;13.86;37.61;102165.72;5041509;28;20493;-68
2022/03/08 10:26:47;;;;;;;7.68;3.92;;;;;;;14.13;39.33;102171.59;5063931;28;20056;-67
2022/03/08 10:29:15;;;;;;;7.15;4.00;;;;;;;13.59;37.19;102151.09;5038720;28;20072;-67
2022/03/08 10:31:41;;;;;;;5.65;3.47;;;;;;;13.77;37.01;102146.81;5035512;28;20154;-67
2022/03/08 10:34:10;;;;;;;9.35;3.97;;;;;;;12.61;38.43;102148.84;5044863;28;20566;-67
2022/03/08 10:36:37;;;;;;;5.75;3.45;;;;;;;13.61;35.56;102158.00;5068360;28;20076;-67
2022/03/08 10:39:10;;;;;;;6.25;3.42;;;;;;;14.10;38.95;102161.19;5044439;28;20051;-67
2022/03/08 10:41:47;;;;;;;10.35;3.60;;;;;;;14.28;36.76;102164.78;5056174;28;20052;-67
2022/03/08 10:44:13;;;;;;;5.45;3.38;;;;;;;13.71;35.63;102155.00;5051523;28;20055;-67
2022/03/08 10:46:40;;;;;;;4.97;3.22;;;;;;;13.91;35.77;102162.91;5054867;28;20048;-68
2022/03/08 10:49:14;;;;;;;2.53;1.52;;;;;;;13.72;33.68;102159.31;5062863;28;20059;-67
2022/03/08 10:51:40;;;;;;;2.88;1.65;;;;;;;13.77;32.78;102157.38;5067936;28;20101;-67
2022/03/08 10:54:15;;;;;;;3.63;1.67;;;;;;;14.09;31.82;102165.59;5067172;28;20472;-67
2022/03/08 10:56:43;;;;;;;4.82;2.00;;;;;;;14.91;31.70;102150.47;5056102;28;20044;-67
2022/03/08 10:59:11;;;;;;;13.20;2.55;;;;;;;14.53;29.42;102158.38;5067216;28;20072;-68
2022/03/08 11:01:38;;;;;;;4.72;2.22;;;;;;;13.77;32.51;102152.09;5051597;28;20088;-67
2022/03/08 11:04:05;;;;;;;5.57;2.28;;;;;;;13.61;34.34;102155.38;5029461;28;20115;-67
2022/03/08 11:06:32;;;;;;;6.05;2.15;;;;;;;14.47;33.66;102160.44;5034489;28;20045;-67
2022/03/08 11:08:58;;;;;;;6.95;2.15;;;;;;;14.69;32.15;102155.03;5034491;28;20459;-67
2022/03/08 11:11:26;;;;;;;4.05;2.17;;;;;;;14.59;33.87;102158.13;5065558;28;20068;-67
2022/03/08 11:13:52;;;;;;;4.07;1.75;;;;;;;14.20;35.03;102148.44;5067741;28;20049;-67
2022/03/08 11:16:19;;;;;;;4.28;2.13;;;;;;;14.04;34.29;102135.91;5055885;28;20049;-67
2022/03/08 11:18:49;;;;;;;5.85;2.00;;;;;;;14.42;35.79;102139.53;5066086;28;20044;-67
2022/03/08 11:21:17;;;;;;;4.50;2.05;;;;;;;13.50;33.99;102144.44;5066621;28;20040;-67